Time;durP1;ratioP1;P1;durP2;ratioP2;P2;SDS_P1;SDS_P2;PMS_P1;PMS_P2;Temp;Humidity;BMP_temperature;BMP_pressure;BME280_temperature;BME280_humidity;BME280_pressure;Samples;Min_cycle;Max_cycle;Signal;HPM_P1;HPM_P2
2022/05/31 00:01:52;;;;;;;2.90;2.07;;;;;;;;;;5017290;28;20202;-73
2022/05/31 00:04:20;;;;;;;2.77;2.23;;;;;;;;;;5021587;28;20632;-77
2022/05/31 00:06:47;;;;;;;2.63;1.93;;;;;;;;;;5017769;28;20317;-75
2022/05/31 00:09:14;;;;;;;2.47;2.03;;;;;;;;;;5014850;28;20351;-75
2022/05/31 00:11:42;;;;;;;2.63;2.40;;;;;;;;;;5020577;28;20337;-77
2022/05/31 00:14:10;;;;;;;2.50;2.23;;;;;;;;;;5026129;28;20301;-75
2022/05/31 00:16:38;;;;;;;4.53;1.90;;;;;;;;;;5018431;28;20317;-76
2022/05/31 00:19:05;;;;;;;3.77;2.37;;;;;;;;;;5022040;28;20938;-75
2022/05/31 00:21:44;;;;;;;2.17;2.00;;;;;;;;;;5025928;28;20207;-76
2022/05/31 00:24:15;;;;;;;6.17;2.30;;;;;;;;;;5022217;28;21760;-75
2022/05/31 00:26:43;;;;;;;2.20;2.00;;;;;;;;;;5018170;28;20225;-76
2022/05/31 00:29:11;;;;;;;4.73;2.27;;;;;;;;;;5026927;28;20210;-76
2022/05/31 00:31:43;;;;;;;3.30;2.50;;;;;;;;;;5021009;28;20214;-75
2022/05/31 00:34:11;;;;;;;2.80;2.07;;;;;;;;;;5029399;28;20206;-76
2022/05/31 00:36:40;;;;;;;2.73;2.30;;;;;;;;;;5029804;28;20237;-78
2022/05/31 00:39:07;;;;;;;2.17;1.97;;;;;;;;;;5022347;28;20210;-78
2022/05/31 00:41:35;;;;;;;3.00;2.43;;;;;;;;;;5022278;28;20202;-77
2022/05/31 00:44:04;;;;;;;5.63;4.00;;;;;;;;;;5024465;28;20290;-77
2022/05/31 00:46:51;;;;;;;5.53;3.87;;;;;;;;;;5024110;28;20299;-75
2022/05/31 00:49:39;;;;;;;4.37;3.27;;;;;;;;;;5040367;28;20296;-77
2022/05/31 00:52:22;;;;;;;4.50;3.93;;;;;;;;;;5021815;28;20202;-74
2022/05/31 00:54:52;;;;;;;4.57;3.67;;;;;;;;;;5030815;28;20319;-75
2022/05/31 00:57:20;;;;;;;2.53;2.33;;;;;;;;;;5029089;28;20202;-78
2022/05/31 00:59:49;;;;;;;3.07;2.40;;;;;;;;;;5015757;28;20203;-77
2022/05/31 01:02:17;;;;;;;2.73;2.50;;;;;;;;;;5025200;28;20578;-77
2022/05/31 01:04:55;;;;;;;2.40;2.20;;;;;;;;;;5029319;28;23039;-74
2022/05/31 01:07:22;;;;;;;3.10;2.40;;;;;;;;;;5020368;28;20198;-76
2022/05/31 01:09:50;;;;;;;2.10;1.90;;;;;;;;;;5024430;28;20658;-77
2022/05/31 01:12:18;;;;;;;2.10;1.70;;;;;;;;;;5017881;28;20897;-76
2022/05/31 01:14:46;;;;;;;3.57;3.13;;;;;;;;;;5012384;28;20399;-77
2022/05/31 01:17:14;;;;;;;3.73;2.60;;;;;;;;;;5024227;28;20198;-78
2022/05/31 01:19:59;;;;;;;2.10;1.90;;;;;;;;;;5020812;28;20221;-77
2022/05/31 01:22:41;;;;;;;2.53;1.93;;;;;;;;;;5019719;28;20203;-76
2022/05/31 01:25:12;;;;;;;2.40;2.20;;;;;;;;;;5020406;28;20255;-77
2022/05/31 01:27:46;;;;;;;2.93;2.00;;;;;;;;;;5020921;28;20202;-76
2022/05/31 01:30:14;;;;;;;2.07;1.90;;;;;;;;;;5031136;28;20219;-76
2022/05/31 01:32:54;;;;;;;2.20;2.00;;;;;;;;;;5018837;28;22408;-76
2022/05/31 01:35:28;;;;;;;2.10;2.00;;;;;;;;;;5024041;28;20230;-76
2022/05/31 01:37:57;;;;;;;1.97;1.87;;;;;;;;;;5019876;28;20297;-75
2022/05/31 01:40:37;;;;;;;6.60;3.60;;;;;;;;;;5027438;28;20234;-77
2022/05/31 01:43:05;;;;;;;3.50;2.70;;;;;;;;;;5020201;28;20396;-75
2022/05/31 01:45:39;;;;;;;3.73;3.00;;;;;;;;;;5028966;28;20250;-75
2022/05/31 01:48:06;;;;;;;3.97;2.87;;;;;;;;;;5025800;28;20291;-77
2022/05/31 01:50:34;;;;;;;3.20;2.87;;;;;;;;;;5019968;28;20206;-75
2022/05/31 01:53:02;;;;;;;3.30;2.80;;;;;;;;;;5021825;28;20292;-76
2022/05/31 01:55:31;;;;;;;6.30;3.47;;;;;;;;;;5024752;28;20245;-76
2022/05/31 01:58:00;;;;;;;5.57;3.30;;;;;;;;;;5034541;28;21934;-75
2022/05/31 02:00:27;;;;;;;4.27;3.13;;;;;;;;;;5033663;28;20442;-76
2022/05/31 02:02:57;;;;;;;4.47;2.70;;;;;;;;;;5030477;28;20290;-76
2022/05/31 02:05:24;;;;;;;2.50;2.30;;;;;;;;;;5024942;28;20236;-74
2022/05/31 02:07:52;;;;;;;2.00;1.90;;;;;;;;;;5026066;28;20206;-77
2022/05/31 02:10:21;;;;;;;2.33;2.10;;;;;;;;;;5020353;28;20210;-77
2022/05/31 02:12:49;;;;;;;2.40;2.20;;;;;;;;;;5019717;28;20416;-77
2022/05/31 02:15:17;;;;;;;2.40;1.80;;;;;;;;;;5020001;28;20246;-75
2022/05/31 02:17:44;;;;;;;2.77;2.23;;;;;;;;;;5022554;28;20242;-77
2022/05/31 02:20:12;;;;;;;2.07;1.97;;;;;;;;;;5015844;28;20302;-77
2022/05/31 02:22:40;;;;;;;2.13;2.00;;;;;;;;;;5019582;28;20343;-77
2022/05/31 02:25:08;;;;;;;2.57;2.20;;;;;;;;;;5022347;28;20226;-73
2022/05/31 02:27:36;;;;;;;3.17;2.37;;;;;;;;;;5018366;28;20734;-75
2022/05/31 02:30:03;;;;;;;2.50;2.30;;;;;;;;;;5017872;28;20293;-77
2022/05/31 02:32:31;;;;;;;3.70;2.50;;;;;;;;;;5031765;28;20307;-76
2022/05/31 02:34:58;;;;;;;3.03;2.60;;;;;;;;;;5020653;28;20377;-76
2022/05/31 02:37:26;;;;;;;2.50;2.17;;;;;;;;;;5017879;28;20656;-76
2022/05/31 02:39:53;;;;;;;3.50;2.30;;;;;;;;;;5028389;28;20211;-76
2022/05/31 02:42:22;;;;;;;2.60;2.40;;;;;;;;;;5014648;28;20210;-76
2022/05/31 02:44:51;;;;;;;4.07;2.20;;;;;;;;;;5021434;28;20229;-75
2022/05/31 02:47:19;;;;;;;2.60;2.17;;;;;;;;;;5039342;28;20214;-76
2022/05/31 02:49:47;;;;;;;2.50;2.30;;;;;;;;;;5018665;28;20667;-75
2022/05/31 02:52:15;;;;;;;2.70;2.50;;;;;;;;;;5016288;28;20211;-76
2022/05/31 02:54:43;;;;;;;2.37;2.23;;;;;;;;;;5020320;28;20253;-75
2022/05/31 02:57:10;;;;;;;2.43;2.23;;;;;;;;;;5028444;28;20236;-78
2022/05/31 02:59:37;;;;;;;2.50;2.30;;;;;;;;;;5028576;28;20206;-76
2022/05/31 03:02:12;;;;;;;2.60;2.40;;;;;;;;;;5027819;28;20691;-77
2022/05/31 03:04:39;;;;;;;2.87;2.67;;;;;;;;;;5029694;28;20314;-76
2022/05/31 03:07:09;;;;;;;3.07;2.20;;;;;;;;;;5034196;28;20301;-76
2022/05/31 03:09:36;;;;;;;2.13;2.00;;;;;;;;;;5031819;28;20217;-78
2022/05/31 03:12:06;;;;;;;5.13;2.50;;;;;;;;;;5019451;28;20298;-77
2022/05/31 03:14:33;;;;;;;3.10;2.30;;;;;;;;;;5021576;28;20354;-77
2022/05/31 03:17:04;;;;;;;2.70;2.40;;;;;;;;;;5024869;28;20232;-77
2022/05/31 03:19:34;;;;;;;2.27;2.17;;;;;;;;;;5027564;28;20310;-76
2022/05/31 03:22:04;;;;;;;2.07;1.90;;;;;;;;;;5020978;28;21573;-78
2022/05/31 03:24:39;;;;;;;3.30;2.30;;;;;;;;;;5021961;28;20940;-77
2022/05/31 03:27:07;;;;;;;2.60;2.40;;;;;;;;;;5024331;28;20213;-78
2022/05/31 03:29:36;;;;;;;3.00;2.20;;;;;;;;;;5021277;28;20659;-77
2022/05/31 03:32:03;;;;;;;2.60;2.30;;;;;;;;;;5020265;28;20281;-78
2022/05/31 03:34:32;;;;;;;3.00;2.47;;;;;;;;;;5013209;28;20233;-77
2022/05/31 03:36:59;;;;;;;2.37;2.27;;;;;;;;;;5021110;28;20232;-77
2022/05/31 03:39:26;;;;;;;3.70;2.50;;;;;;;;;;5022315;28;20325;-75
2022/05/31 03:41:54;;;;;;;2.60;2.40;;;;;;;;;;5016685;28;20333;-76
2022/05/31 03:44:21;;;;;;;3.43;2.47;;;;;;;;;;5028591;28;20575;-77
2022/05/31 03:46:48;;;;;;;2.53;2.33;;;;;;;;;;5016656;28;20340;-77
2022/05/31 03:49:17;;;;;;;4.10;3.03;;;;;;;;;;5019248;28;20217;-75
2022/05/31 03:51:44;;;;;;;2.60;2.40;;;;;;;;;;5007471;28;20202;-76
2022/05/31 03:54:11;;;;;;;2.30;2.20;;;;;;;;;;5015368;28;20234;-78
2022/05/31 03:56:38;;;;;;;3.17;2.20;;;;;;;;;;5017326;28;20368;-76
2022/05/31 03:59:06;;;;;;;2.23;2.10;;;;;;;;;;5008631;28;20203;-77
2022/05/31 04:01:33;;;;;;;4.53;2.30;;;;;;;;;;5012877;28;20273;-78
2022/05/31 04:04:03;;;;;;;2.50;2.30;;;;;;;;;;5015721;28;20685;-76
2022/05/31 04:06:31;;;;;;;3.33;2.47;;;;;;;;;;5026001;28;21086;-76
2022/05/31 04:08:59;;;;;;;2.63;2.40;;;;;;;;;;5022773;28;21025;-77
2022/05/31 04:11:26;;;;;;;4.97;2.53;;;;;;;;;;5021139;28;20238;-78
2022/05/31 04:13:54;;;;;;;2.57;2.40;;;;;;;;;;5020613;28;20221;-78
2022/05/31 04:16:22;;;;;;;2.50;2.30;;;;;;;;;;5028609;28;20241;-78
2022/05/31 04:18:50;;;;;;;4.80;2.47;;;;;;;;;;5025958;28;20207;-78
2022/05/31 04:21:18;;;;;;;2.60;2.40;;;;;;;;;;5030908;28;20276;-78
2022/05/31 04:23:58;;;;;;;2.67;2.47;;;;;;;;;;5024047;28;20297;-78
2022/05/31 04:26:26;;;;;;;2.73;2.53;;;;;;;;;;5022665;28;20226;-77
2022/05/31 04:28:54;;;;;;;4.13;2.50;;;;;;;;;;5027472;28;20310;-77
2022/05/31 04:31:21;;;;;;;5.30;2.90;;;;;;;;;;5029158;28;20230;-78
2022/05/31 04:33:49;;;;;;;4.37;2.60;;;;;;;;;;5021258;28;21395;-78
2022/05/31 04:36:17;;;;;;;3.00;2.70;;;;;;;;;;5018660;28;20227;-80
2022/05/31 04:38:44;;;;;;;2.50;2.30;;;;;;;;;;5032112;28;22476;-76
2022/05/31 04:41:25;;;;;;;2.47;2.27;;;;;;;;;;5024300;28;20206;-78
2022/05/31 04:43:53;;;;;;;2.43;2.23;;;;;;;;;;5023701;28;20225;-76
2022/05/31 04:46:21;;;;;;;5.70;3.97;;;;;;;;;;5042111;28;20237;-78
2022/05/31 04:48:49;;;;;;;4.87;3.97;;;;;;;;;;5028386;28;20245;-77
2022/05/31 04:51:17;;;;;;;3.83;2.83;;;;;;;;;;5021351;28;20214;-78
2022/05/31 04:53:44;;;;;;;2.67;2.47;;;;;;;;;;5028218;28;20293;-77
2022/05/31 04:56:13;;;;;;;2.50;2.30;;;;;;;;;;5013592;28;21866;-76
2022/05/31 04:58:40;;;;;;;5.13;2.70;;;;;;;;;;5017227;28;20207;-77
2022/05/31 05:01:07;;;;;;;3.40;2.27;;;;;;;;;;5023819;28;20203;-77
2022/05/31 05:03:36;;;;;;;3.00;2.47;;;;;;;;;;5019399;28;20197;-79
2022/05/31 05:06:04;;;;;;;3.07;2.63;;;;;;;;;;5033925;28;20317;-76
2022/05/31 05:08:32;;;;;;;4.60;2.60;;;;;;;;;;5021821;28;20677;-77
2022/05/31 05:11:00;;;;;;;2.80;2.50;;;;;;;;;;5019108;28;20986;-77
2022/05/31 05:13:28;;;;;;;2.60;2.37;;;;;;;;;;5017943;28;20347;-76
2022/05/31 05:15:57;;;;;;;2.50;2.30;;;;;;;;;;5024626;28;20254;-77
2022/05/31 05:18:25;;;;;;;3.33;2.30;;;;;;;;;;5015464;28;20211;-77
2022/05/31 05:20:52;;;;;;;2.37;2.17;;;;;;;;;;5022085;28;20225;-77
2022/05/31 05:23:20;;;;;;;2.97;2.10;;;;;;;;;;5028230;28;20225;-78
2022/05/31 05:25:51;;;;;;;3.53;1.93;;;;;;;;;;5026873;28;20309;-77
2022/05/31 05:31:05;;;;;;;2.20;1.90;;;;;;;;;;5030038;28;20229;-76
2022/05/31 05:33:33;;;;;;;2.73;1.87;;;;;;;;;;5021360;28;20217;-78
2022/05/31 05:36:06;;;;;;;1.97;1.77;;;;;;;;;;5018919;28;20230;-75
2022/05/31 05:38:33;;;;;;;4.17;1.90;;;;;;;;;;5020984;28;20289;-77
2022/05/31 05:41:01;;;;;;;1.60;1.50;;;;;;;;;;5020838;28;20210;-79
2022/05/31 05:43:28;;;;;;;1.77;1.43;;;;;;;;;;5024546;28;20297;-77
2022/05/31 05:45:55;;;;;;;2.00;1.90;;;;;;;;;;5023207;28;20228;-77
2022/05/31 05:48:23;;;;;;;1.70;1.60;;;;;;;;;;5028273;28;20237;-77
2022/05/31 05:50:50;;;;;;;1.73;1.60;;;;;;;;;;5035052;28;20293;-77
2022/05/31 05:53:17;;;;;;;1.70;1.60;;;;;;;;;;5034442;28;20210;-78
2022/05/31 05:55:45;;;;;;;2.43;1.90;;;;;;;;;;5020662;28;20226;-78
2022/05/31 05:58:12;;;;;;;4.97;1.83;;;;;;;;;;5028884;28;20317;-77
2022/05/31 06:00:48;;;;;;;2.97;2.10;;;;;;;;;;5027493;28;20206;-77
2022/05/31 06:03:21;;;;;;;1.97;1.80;;;;;;;;;;5027650;28;20337;-77
2022/05/31 06:05:48;;;;;;;3.80;1.90;;;;;;;;;;5037601;28;20228;-77
2022/05/31 06:08:20;;;;;;;1.70;1.60;;;;;;;;;;5024737;28;20238;-76
2022/05/31 06:10:53;;;;;;;1.98;1.77;;;;;;;;;;5035113;28;20213;-75
2022/05/31 06:13:30;;;;;;;2.73;1.90;;;;;;;;;;5035754;28;20202;-78
2022/05/31 06:15:58;;;;;;;2.57;1.90;;;;;;;;;;5039206;28;20322;-79
2022/05/31 06:18:28;;;;;;;1.73;1.63;;;;;;;;;;5033246;28;20229;-80
2022/05/31 06:20:57;;;;;;;1.80;1.70;;;;;;;;;;5032466;28;20214;-78
2022/05/31 06:23:25;;;;;;;2.10;2.00;;;;;;;;;;5029499;28;20358;-79
2022/05/31 06:25:52;;;;;;;3.50;1.80;;;;;;;;;;5019706;28;20226;-79
2022/05/31 06:28:19;;;;;;;3.83;2.00;;;;;;;;;;5028049;28;20226;-77
2022/05/31 06:30:46;;;;;;;2.10;1.90;;;;;;;;;;5031486;28;20685;-78
2022/05/31 06:33:13;;;;;;;1.87;1.70;;;;;;;;;;5027175;28;20639;-79
2022/05/31 06:35:41;;;;;;;4.13;2.10;;;;;;;;;;5030681;28;20641;-77
2022/05/31 06:38:08;;;;;;;3.73;1.80;;;;;;;;;;5030861;28;20308;-76
2022/05/31 06:40:36;;;;;;;4.23;2.10;;;;;;;;;;5035656;28;20357;-77
2022/05/31 06:43:03;;;;;;;2.50;1.90;;;;;;;;;;5044495;28;20198;-78
2022/05/31 06:45:31;;;;;;;3.93;1.90;;;;;;;;;;5034743;28;20230;-77
2022/05/31 06:47:58;;;;;;;2.90;2.00;;;;;;;;;;5034081;28;20326;-78
2022/05/31 06:50:25;;;;;;;3.43;1.77;;;;;;;;;;5036203;28;20301;-78
2022/05/31 06:58:25;;;;;;;2.00;1.80;;;;;;;;;;5035613;28;20300;-77
2022/05/31 07:00:53;;;;;;;2.00;1.80;;;;;;;;;;5024159;28;20731;-77
2022/05/31 07:03:20;;;;;;;3.70;1.80;;;;;;;;;;5022996;28;20266;-78
2022/05/31 07:05:48;;;;;;;2.37;1.90;;;;;;;;;;5024100;28;20233;-77
2022/05/31 07:08:15;;;;;;;2.10;2.00;;;;;;;;;;5031929;28;20294;-80
2022/05/31 07:10:42;;;;;;;3.53;1.93;;;;;;;;;;5038397;28;20293;-79
2022/05/31 07:13:09;;;;;;;2.00;1.80;;;;;;;;;;5037456;28;20215;-78
2022/05/31 07:15:37;;;;;;;2.50;2.15;;;;;;;;;;5032898;28;20258;-78
2022/05/31 07:18:24;;;;;;;1.90;1.80;;;;;;;;;;5041115;28;20693;-80
2022/05/31 07:20:51;;;;;;;2.08;1.80;;;;;;;;;;5040744;28;20318;-78
2022/05/31 07:23:19;;;;;;;2.85;2.00;;;;;;;;;;5036506;28;20238;-78
2022/05/31 07:25:46;;;;;;;3.58;2.33;;;;;;;;;;5039596;28;20226;-78
2022/05/31 07:28:14;;;;;;;3.43;2.20;;;;;;;;;;5033064;28;20214;-75
2022/05/31 07:30:41;;;;;;;3.40;2.30;;;;;;;;;;5031478;28;20644;-78
2022/05/31 07:33:09;;;;;;;2.10;1.90;;;;;;;;;;5030367;28;20206;-78
2022/05/31 07:35:56;;;;;;;3.40;2.15;;;;;;;;;;5032708;28;20723;-79
2022/05/31 07:38:26;;;;;;;2.77;2.00;;;;;;;;;;5036081;28;20249;-76
2022/05/31 07:40:53;;;;;;;2.20;2.10;;;;;;;;;;5035238;28;20198;-77
2022/05/31 07:43:20;;;;;;;2.65;1.90;;;;;;;;;;5037411;28;20290;-76
2022/05/31 07:45:48;;;;;;;1.83;1.73;;;;;;;;;;5040706;28;20245;-77
2022/05/31 07:48:16;;;;;;;2.07;1.87;;;;;;;;;;5041115;28;20233;-78
2022/05/31 07:50:43;;;;;;;2.03;1.90;;;;;;;;;;5036720;28;20274;-78
2022/05/31 07:53:10;;;;;;;2.07;1.97;;;;;;;;;;5035296;28;20291;-76
2022/05/31 07:55:38;;;;;;;6.63;2.13;;;;;;;;;;5027093;28;20230;-78
2022/05/31 08:00:51;;;;;;;1.80;1.70;;;;;;;;;;5038725;28;20245;-77
2022/05/31 08:03:19;;;;;;;2.38;1.77;;;;;;;;;;5048999;28;20202;-79
2022/05/31 08:05:46;;;;;;;2.15;1.88;;;;;;;;;;5039550;28;21429;-76
2022/05/31 08:08:13;;;;;;;2.47;1.90;;;;;;;;;;5030992;28;20313;-76
2022/05/31 08:11:11;;;;;;;2.53;2.20;;;;;;;;;;5040272;28;20215;-76
2022/05/31 08:13:39;;;;;;;2.60;2.00;;;;;;;;;;5034262;28;20607;-79
2022/05/31 08:16:07;;;;;;;1.88;1.77;;;;;;;;;;5030644;28;20763;-78
2022/05/31 08:18:35;;;;;;;4.30;2.00;;;;;;;;;;5031591;28;20261;-77
2022/05/31 08:21:04;;;;;;;1.80;1.70;;;;;;;;;;5022295;28;20675;-77
2022/05/31 08:23:32;;;;;;;2.80;1.63;;;;;;;;;;5024115;28;20210;-77
2022/05/31 08:25:59;;;;;;;2.95;1.85;;;;;;;;;;5030198;28;20309;-77
2022/05/31 08:28:27;;;;;;;2.03;1.83;;;;;;;;;;5036510;28;20222;-78
2022/05/31 08:30:56;;;;;;;3.10;1.80;;;;;;;;;;5033133;28;21352;-78
2022/05/31 08:33:27;;;;;;;1.67;1.52;;;;;;;;;;5035155;28;20209;-77
2022/05/31 08:35:54;;;;;;;1.73;1.60;;;;;;;;;;5036441;28;21005;-79
2022/05/31 08:38:31;;;;;;;2.28;1.85;;;;;;;;;;5029131;28;20214;-75
2022/05/31 08:40:58;;;;;;;2.90;1.60;;;;;;;;;;5024484;28;20330;-77
2022/05/31 08:43:34;;;;;;;1.48;1.30;;;;;;;;;;5020357;28;20229;-79
2022/05/31 08:46:04;;;;;;;2.28;1.70;;;;;;;;;;5026226;28;20229;-78
2022/05/31 08:48:34;;;;;;;1.55;1.45;;;;;;;;;;5027063;28;20252;-78
2022/05/31 08:57:09;;;;;;;2.28;1.35;;;;;;;;;;5039444;28;20229;-78
2022/05/31 08:59:49;;;;;;;1.58;1.48;;;;;;;;;;5026080;28;20222;-78
2022/05/31 09:02:22;;;;;;;2.53;1.88;;;;;;;;;;5030602;28;20205;-78
2022/05/31 09:05:06;;;;;;;1.42;1.33;;;;;;;;;;5036711;28;20222;-78
2022/05/31 09:07:54;;;;;;;2.10;1.40;;;;;;;;;;5031906;28;20293;-79
2022/05/31 09:10:32;;;;;;;1.85;1.33;;;;;;;;;;5028780;28;20202;-77
2022/05/31 09:13:04;;;;;;;3.58;1.52;;;;;;;;;;5030001;28;20333;-79
2022/05/31 09:15:43;;;;;;;2.10;1.30;;;;;;;;;;5037795;28;20734;-76
2022/05/31 09:18:29;;;;;;;2.63;1.38;;;;;;;;;;5036994;28;20254;-77
2022/05/31 09:20:59;;;;;;;1.42;1.33;;;;;;;;;;5036464;28;20446;-78
2022/05/31 09:23:28;;;;;;;1.20;1.10;;;;;;;;;;5031584;28;20233;-78
2022/05/31 09:25:59;;;;;;;2.85;1.30;;;;;;;;;;5034496;28;20310;-78
2022/05/31 09:28:32;;;;;;;1.45;1.20;;;;;;;;;;5035622;28;21431;-76
2022/05/31 09:31:05;;;;;;;1.30;1.20;;;;;;;;;;5032633;28;20253;-77
2022/05/31 09:33:40;;;;;;;3.47;1.30;;;;;;;;;;5039678;28;20670;-75
2022/05/31 09:36:07;;;;;;;3.25;1.17;;;;;;;;;;5039801;28;20256;-75
2022/05/31 09:38:53;;;;;;;2.42;1.40;;;;;;;;;;5035256;28;20758;-77
2022/05/31 09:41:24;;;;;;;3.15;1.55;;;;;;;;;;5031331;28;20285;-77
2022/05/31 09:43:58;;;;;;;2.25;1.30;;;;;;;;;;5029652;28;20301;-77
2022/05/31 09:46:44;;;;;;;3.35;1.50;;;;;;;;;;5031493;28;20222;-77
2022/05/31 09:49:23;;;;;;;1.38;1.17;;;;;;;;;;5037523;28;20214;-77
2022/05/31 09:51:51;;;;;;;2.25;1.77;;;;;;;;;;5034812;28;20217;-76
2022/05/31 09:57:13;;;;;;;2.67;1.58;;;;;;;;;;5030568;28;20207;-76
2022/05/31 09:59:49;;;;;;;1.70;1.33;;;;;;;;;;5030672;28;20256;-77
2022/05/31 10:02:35;;;;;;;3.63;1.67;;;;;;;;;;5034278;28;20289;-77
2022/05/31 10:05:08;;;;;;;2.78;1.40;;;;;;;;;;5026979;28;20225;-74
2022/05/31 10:07:37;;;;;;;1.77;1.65;;;;;;;;;;5017237;28;22029;-76
2022/05/31 10:10:07;;;;;;;1.95;1.42;;;;;;;;;;5016625;28;20708;-77
2022/05/31 10:12:35;;;;;;;1.63;1.52;;;;;;;;;;5021040;28;20210;-76
2022/05/31 10:15:03;;;;;;;2.13;1.45;;;;;;;;;;5020368;28;20312;-79
2022/05/31 10:17:33;;;;;;;2.25;1.50;;;;;;;;;;5030004;28;20751;-77
2022/05/31 10:20:06;;;;;;;2.70;1.40;;;;;;;;;;5028841;28;20198;-78
2022/05/31 10:22:35;;;;;;;3.75;1.50;;;;;;;;;;5037214;28;20300;-75
2022/05/31 10:25:23;;;;;;;2.45;1.58;;;;;;;;;;5030610;28;20229;-76
2022/05/31 10:27:56;;;;;;;2.92;2.00;;;;;;;;;;5038188;28;20309;-77
2022/05/31 10:30:23;;;;;;;1.75;1.60;;;;;;;;;;5034786;28;20206;-77
2022/05/31 10:32:52;;;;;;;2.72;1.50;;;;;;;;;;5037493;28;20229;-77
2022/05/31 10:35:24;;;;;;;2.83;1.75;;;;;;;;;;5041235;28;20226;-76
2022/05/31 10:37:57;;;;;;;2.15;1.70;;;;;;;;;;5044764;28;20317;-78
2022/05/31 10:40:28;;;;;;;2.60;1.65;;;;;;;;;;5042414;28;20678;-77
2022/05/31 10:42:59;;;;;;;2.83;1.30;;;;;;;;;;5041691;28;20249;-77
2022/05/31 10:45:27;;;;;;;2.88;1.90;;;;;;;;;;5036965;28;20222;-78
2022/05/31 10:47:56;;;;;;;1.55;1.20;;;;;;;;;;5041197;28;20202;-76
2022/05/31 10:50:24;;;;;;;1.40;1.30;;;;;;;;;;5043632;28;20620;-77
2022/05/31 10:52:59;;;;;;;2.83;1.30;;;;;;;;;;5040101;28;20242;-76
2022/05/31 10:55:43;;;;;;;1.42;1.20;;;;;;;;;;5035043;28;20229;-78
2022/05/31 10:58:29;;;;;;;2.13;1.40;;;;;;;;;;5042202;28;20245;-77
2022/05/31 11:01:22;;;;;;;2.45;1.30;;;;;;;;;;5052218;28;20210;-78
2022/05/31 11:04:02;;;;;;;2.50;1.60;;;;;;;;;;5023593;28;20198;-78
2022/05/31 11:06:48;;;;;;;3.33;1.45;;;;;;;;;;5043000;28;20248;-78
2022/05/31 11:12:37;;;;;;;4.10;1.52;;;;;;;;;;5044257;28;20593;-80
2022/05/31 11:15:27;;;;;;;2.50;1.48;;;;;;;;;;5050095;28;20233;-78
2022/05/31 11:18:14;;;;;;;1.73;1.48;;;;;;;;;;5019188;28;20692;-75
2022/05/31 11:20:47;;;;;;;5.00;3.10;;;;;;;;;;5044679;28;20732;-78
2022/05/31 11:23:14;;;;;;;6.47;1.77;;;;;;;;;;5034033;28;20815;-76
2022/05/31 11:25:54;;;;;;;2.25;1.65;;;;;;;;;;5024645;28;20318;-76
2022/05/31 11:29:00;;;;;;;2.60;1.70;;;;;;;;;;5028506;28;20217;-79
2022/05/31 11:31:30;;;;;;;1.85;1.60;;;;;;;;;;5039978;28;20206;-78
2022/05/31 11:34:07;;;;;;;1.60;1.50;;;;;;;;;;5032309;28;20333;-78
2022/05/31 11:36:53;;;;;;;2.40;1.55;;;;;;;;;;5039118;28;20253;-78
2022/05/31 11:39:39;;;;;;;4.15;1.60;;;;;;;;;;5043144;28;20234;-75
2022/05/31 11:42:10;;;;;;;1.65;1.50;;;;;;;;;;5043395;28;20628;-80
2022/05/31 11:44:46;;;;;;;2.15;1.52;;;;;;;;;;5036204;28;20246;-77
2022/05/31 11:47:16;;;;;;;2.72;1.63;;;;;;;;;;5038833;28;20293;-78
2022/05/31 11:49:59;;;;;;;2.10;1.50;;;;;;;;;;5032016;28;20942;-76
2022/05/31 11:52:38;;;;;;;2.42;1.65;;;;;;;;;;5036679;28;20230;-77
2022/05/31 11:55:30;;;;;;;4.47;2.10;;;;;;;;;;5029015;28;20321;-78
2022/05/31 11:58:07;;;;;;;2.42;1.90;;;;;;;;;;5034955;28;20233;-79
2022/05/31 12:00:38;;;;;;;5.35;2.50;;;;;;;;;;5033258;28;20285;-76
2022/05/31 12:03:10;;;;;;;3.28;2.58;;;;;;;;;;5027031;28;20337;-78
2022/05/31 12:05:43;;;;;;;4.32;1.60;;;;;;;;;;5032108;28;20223;-78
2022/05/31 12:08:19;;;;;;;3.10;1.40;;;;;;;;;;5025987;28;20217;-78
2022/05/31 12:10:50;;;;;;;2.30;1.40;;;;;;;;;;5036437;28;20664;-78
2022/05/31 12:13:18;;;;;;;3.10;1.33;;;;;;;;;;5026902;28;20952;-78
2022/05/31 12:15:47;;;;;;;2.03;1.60;;;;;;;;;;5032160;28;20226;-78
2022/05/31 12:18:14;;;;;;;2.58;1.50;;;;;;;;;;5025968;28;20232;-78
2022/05/31 12:20:48;;;;;;;1.63;1.38;;;;;;;;;;5032524;28;20290;-78
2022/05/31 12:23:26;;;;;;;1.83;1.38;;;;;;;;;;5038166;28;20282;-77
2022/05/31 12:25:54;;;;;;;2.40;1.48;;;;;;;;;;5032520;28;20310;-78
2022/05/31 12:28:47;;;;;;;2.50;2.05;;;;;;;;;;5038703;28;20250;-77
2022/05/31 12:31:21;;;;;;;3.10;1.70;;;;;;;;;;5032776;28;20257;-77
2022/05/31 12:33:49;;;;;;;2.15;1.50;;;;;;;;;;5049772;28;20229;-77
2022/05/31 12:36:23;;;;;;;2.40;1.80;;;;;;;;;;5044922;28;20256;-75
2022/05/31 12:39:10;;;;;;;1.77;1.42;;;;;;;;;;5044115;28;20265;-74
2022/05/31 12:41:41;;;;;;;4.88;1.77;;;;;;;;;;5039352;28;20629;-77
2022/05/31 12:44:25;;;;;;;3.20;1.45;;;;;;;;;;5042863;28;20226;-77
2022/05/31 12:46:53;;;;;;;1.50;1.38;;;;;;;;;;5035160;28;20759;-76
2022/05/31 12:49:29;;;;;;;2.22;1.40;;;;;;;;;;5030808;28;20214;-77
2022/05/31 12:54:49;;;;;;;2.53;1.70;;;;;;;;;;5034862;28;20225;-77
2022/05/31 13:00:38;;;;;;;4.00;1.40;;;;;;;;;;5039134;28;20288;-78
2022/05/31 13:03:25;;;;;;;3.03;1.60;;;;;;;;;;5029840;28;20310;-76
2022/05/31 13:06:13;;;;;;;3.58;1.30;;;;;;;;;;5034179;28;20280;-77
2022/05/31 13:08:52;;;;;;;3.13;1.40;;;;;;;;;;5033658;28;20301;-77
2022/05/31 13:20:26;;;;;;;2.08;1.40;;;;;;;;;;5037158;28;20406;-78
2022/05/31 13:22:56;;;;;;;3.17;1.50;;;;;;;;;;5033452;28;20571;-78
2022/05/31 13:25:28;;;;;;;2.65;1.25;;;;;;;;;;5038387;28;20272;-78
2022/05/31 13:28:00;;;;;;;2.08;1.70;;;;;;;;;;5043249;28;20728;-77
2022/05/31 13:30:29;;;;;;;2.30;2.10;;;;;;;;;;5033965;28;20245;-76
2022/05/31 13:32:58;;;;;;;4.38;1.83;;;;;;;;;;5039012;28;20225;-77
2022/05/31 13:35:32;;;;;;;1.70;1.60;;;;;;;;;;5036364;28;20303;-76
2022/05/31 13:37:59;;;;;;;1.30;1.20;;;;;;;;;;5031824;28;20210;-77
2022/05/31 13:40:46;;;;;;;4.00;1.52;;;;;;;;;;5038890;28;20198;-78
2022/05/31 13:43:34;;;;;;;3.20;1.70;;;;;;;;;;5037030;28;20256;-77
2022/05/31 13:46:05;;;;;;;2.95;1.60;;;;;;;;;;5032928;28;20242;-78
2022/05/31 13:48:36;;;;;;;2.60;1.88;;;;;;;;;;5042790;28;20230;-77
2022/05/31 13:51:10;;;;;;;4.45;1.90;;;;;;;;;;5037750;28;20229;-79
2022/05/31 13:53:42;;;;;;;5.18;3.60;;;;;;;;;;5037583;28;20210;-79
2022/05/31 13:56:17;;;;;;;2.60;2.35;;;;;;;;;;5035767;28;20249;-78
2022/05/31 13:58:48;;;;;;;3.30;2.00;;;;;;;;;;5046874;28;20309;-76
2022/05/31 14:01:32;;;;;;;3.80;2.03;;;;;;;;;;5025972;28;20301;-76
2022/05/31 14:04:05;;;;;;;2.35;1.80;;;;;;;;;;5026934;28;20237;-79
2022/05/31 14:06:37;;;;;;;1.83;1.70;;;;;;;;;;5033225;28;20229;-78
2022/05/31 14:09:06;;;;;;;1.95;1.60;;;;;;;;;;5031133;28;20624;-78
2022/05/31 14:11:36;;;;;;;2.78;2.00;;;;;;;;;;5032423;28;20627;-77
2022/05/31 14:14:18;;;;;;;2.15;1.90;;;;;;;;;;5031508;28;20685;-77
2022/05/31 14:16:45;;;;;;;3.67;1.90;;;;;;;;;;5038932;28;20297;-76
2022/05/31 14:19:18;;;;;;;2.35;1.60;;;;;;;;;;5038046;28;20313;-77
2022/05/31 14:21:47;;;;;;;3.92;1.85;;;;;;;;;;5035939;28;20198;-77
2022/05/31 14:24:19;;;;;;;6.85;1.80;;;;;;;;;;5041105;28;20248;-77
2022/05/31 14:26:48;;;;;;;5.50;1.85;;;;;;;;;;5031831;28;20262;-76
2022/05/31 14:29:19;;;;;;;4.93;1.70;;;;;;;;;;5024588;28;20205;-77
2022/05/31 14:31:48;;;;;;;2.60;1.65;;;;;;;;;;5033339;28;20756;-78
2022/05/31 14:34:19;;;;;;;1.73;1.50;;;;;;;;;;5028710;28;20301;-78
2022/05/31 14:36:47;;;;;;;3.05;1.73;;;;;;;;;;5028384;28;20293;-78
2022/05/31 14:39:16;;;;;;;3.30;1.73;;;;;;;;;;5030275;28;20280;-78
2022/05/31 14:41:43;;;;;;;2.50;1.67;;;;;;;;;;5023258;28;20234;-79
2022/05/31 14:44:33;;;;;;;4.43;1.85;;;;;;;;;;5032366;28;20654;-79
2022/05/31 14:47:11;;;;;;;1.50;1.40;;;;;;;;;;5029955;28;20203;-77
2022/05/31 14:49:45;;;;;;;2.38;1.33;;;;;;;;;;5025857;28;20206;-77
2022/05/31 14:52:26;;;;;;;4.07;1.48;;;;;;;;;;5035591;28;20249;-78
2022/05/31 14:55:04;;;;;;;1.83;1.40;;;;;;;;;;5036222;28;20230;-77
2022/05/31 15:00:19;;;;;;;2.90;1.40;;;;;;;;;;5038009;28;20236;-77
2022/05/31 15:02:47;;;;;;;1.52;1.42;;;;;;;;;;5040199;28;20290;-77
2022/05/31 15:05:25;;;;;;;3.72;1.42;;;;;;;;;;5042850;28;20264;-77
2022/05/31 15:07:53;;;;;;;4.15;1.75;;;;;;;;;;5037824;28;20268;-77
2022/05/31 15:10:27;;;;;;;5.25;1.60;;;;;;;;;;5036855;28;20210;-77
2022/05/31 15:21:15;;;;;;;1.90;1.50;;;;;;;;;;5028970;28;20247;-75
2022/05/31 15:23:43;;;;;;;1.85;1.55;;;;;;;;;;5037657;28;20285;-77
2022/05/31 15:26:15;;;;;;;1.40;1.30;;;;;;;;;;5032817;28;20246;-79
2022/05/31 15:28:43;;;;;;;4.07;1.50;;;;;;;;;;5040784;28;20286;-76
2022/05/31 15:31:36;;;;;;;2.63;1.40;;;;;;;;;;5029961;28;20209;-78
2022/05/31 15:34:23;;;;;;;3.45;1.42;;;;;;;;;;5027333;28;20363;-76
2022/05/31 15:36:51;;;;;;;2.60;1.30;;;;;;;;;;5034556;28;20229;-77
2022/05/31 15:39:18;;;;;;;2.45;1.50;;;;;;;;;;5021988;28;20320;-77
2022/05/31 15:41:46;;;;;;;1.52;1.42;;;;;;;;;;5026475;28;20206;-76
2022/05/31 15:44:13;;;;;;;1.92;1.60;;;;;;;;;;5033340;28;20283;-76
2022/05/31 15:46:43;;;;;;;1.15;1.02;;;;;;;;;;5034094;28;20835;-76
2022/05/31 15:49:12;;;;;;;2.05;1.40;;;;;;;;;;5037135;28;20233;-78
2022/05/31 15:51:44;;;;;;;2.83;1.20;;;;;;;;;;5032346;28;20290;-78
2022/05/31 15:54:15;;;;;;;1.90;1.20;;;;;;;;;;5029201;28;20271;-77
2022/05/31 15:56:43;;;;;;;2.88;1.40;;;;;;;;;;5016351;28;20246;-76
2022/05/31 15:59:12;;;;;;;1.90;1.60;;;;;;;;;;5028659;28;20304;-76